createdAt,value
2022-08-01T00:01:15.775Z,86.50
2022-08-01T00:03:43.442Z,86.70
2022-08-01T00:06:10.874Z,86.80
2022-08-01T00:08:38.524Z,86.80
2022-08-01T00:11:06.085Z,86.90
2022-08-01T00:13:34.021Z,86.90
2022-08-01T00:16:02.263Z,87.00
2022-08-01T00:18:29.891Z,87.10
2022-08-01T00:20:57.508Z,87.10
2022-08-01T00:23:25.030Z,87.20
2022-08-01T00:25:52.719Z,87.20
2022-08-01T00:28:21.345Z,88.10
2022-08-01T00:30:49.322Z,87.30
2022-08-01T00:33:17.096Z,87.40
2022-08-01T00:35:45.238Z,87.40
2022-08-01T00:38:12.817Z,87.60
2022-08-01T00:40:41.031Z,87.60
2022-08-01T00:43:08.585Z,87.80
2022-08-01T00:45:36.707Z,87.90
2022-08-01T00:48:04.635Z,88.00
2022-08-01T00:50:32.483Z,88.10
2022-08-01T00:53:00.946Z,88.20
2022-08-01T00:55:30.208Z,88.40
2022-08-01T00:58:03.243Z,88.50
2022-08-01T01:00:52.599Z,88.60
2022-08-01T01:03:26.402Z,88.80
2022-08-01T01:06:29.230Z,88.80
2022-08-01T01:09:15.409Z,89.20
2022-08-01T01:11:58.071Z,89.30
2022-08-01T01:14:45.691Z,89.50
2022-08-01T01:17:17.652Z,89.70
2022-08-01T01:20:01.681Z,89.70
2022-08-01T01:22:48.100Z,90.00
2022-08-01T01:25:34.482Z,90.00
2022-08-01T01:28:30.924Z,90.10
2022-08-01T01:31:00.990Z,90.10
2022-08-01T01:33:32.264Z,90.10
2022-08-01T01:36:04.827Z,90.10
2022-08-01T01:38:43.099Z,90.10
2022-08-01T01:41:13.996Z,90.10
2022-08-01T01:43:42.067Z,90.00
2022-08-01T01:46:13.497Z,89.60
2022-08-01T01:48:43.967Z,90.00
2022-08-01T01:51:14.392Z,90.00
2022-08-01T01:53:43.477Z,90.00
2022-08-01T01:56:12.629Z,90.00
2022-08-01T01:58:41.441Z,90.10
2022-08-01T02:01:14.894Z,90.10
2022-08-01T02:03:44.753Z,90.10
2022-08-01T02:06:14.801Z,90.10
2022-08-01T02:08:44.234Z,90.10
2022-08-01T02:11:22.921Z,90.10
2022-08-01T02:14:04.982Z,90.10
2022-08-01T02:16:38.389Z,90.10
2022-08-01T02:19:06.133Z,90.00
2022-08-01T02:21:43.170Z,89.90
2022-08-01T02:24:15.740Z,89.90
2022-08-01T02:26:48.534Z,89.60
2022-08-01T02:29:22.195Z,89.60
2022-08-01T02:31:51.819Z,89.50
2022-08-01T02:34:20.977Z,89.40
2022-08-01T02:36:50.741Z,89.40
2022-08-01T02:39:23.057Z,89.30
2022-08-01T02:41:58.813Z,89.30
2022-08-01T02:44:35.054Z,89.40
2022-08-01T02:47:05.923Z,89.50
2022-08-01T02:49:37.171Z,89.40
2022-08-01T02:52:14.448Z,89.50
2022-08-01T02:54:44.456Z,89.70
2022-08-01T02:57:14.174Z,89.80
2022-08-01T02:59:44.931Z,89.80
2022-08-01T03:02:13.686Z,90.00
2022-08-01T03:04:42.638Z,90.00
2022-08-01T03:07:11.891Z,90.10
2022-08-01T03:09:46.037Z,90.10
2022-08-01T03:12:20.998Z,90.20
2022-08-01T03:14:51.225Z,90.20
2022-08-01T03:17:24.652Z,90.30
2022-08-01T03:19:54.151Z,90.40
2022-08-01T03:22:25.771Z,90.50
2022-08-01T03:24:55.031Z,90.50
2022-08-01T03:27:25.274Z,90.90
2022-08-01T03:29:55.793Z,90.60
2022-08-01T03:32:24.991Z,90.70
2022-08-01T03:34:52.995Z,90.70
2022-08-01T03:37:27.186Z,90.80
2022-08-01T03:40:08.963Z,90.90
2022-08-01T03:42:46.735Z,90.90
2022-08-01T03:45:22.333Z,91.00
2022-08-01T03:47:53.988Z,91.00
2022-08-01T03:50:23.165Z,91.00
2022-08-01T03:52:52.586Z,91.10
2022-08-01T03:55:22.725Z,91.10
2022-08-01T03:57:51.560Z,91.20
2022-08-01T04:00:21.970Z,91.30
2022-08-01T04:02:51.600Z,91.40
2022-08-01T04:05:20.692Z,91.40
2022-08-01T04:07:57.015Z,91.50
2022-08-01T04:10:24.959Z,91.60
2022-08-01T04:12:53.113Z,91.60
2022-08-01T04:15:24.853Z,91.70
2022-08-01T04:17:55.256Z,91.80
2022-08-01T04:20:23.159Z,91.90
2022-08-01T04:22:50.707Z,91.90
2022-08-01T04:25:30.603Z,92.00
2022-08-01T04:28:00.128Z,92.10
2022-08-01T04:30:31.329Z,92.10
2022-08-01T04:33:00.286Z,92.20
2022-08-01T04:36:01.364Z,91.90
2022-08-01T04:38:23.661Z,92.10
2022-08-01T04:40:53.462Z,92.40
2022-08-01T04:43:21.682Z,92.20
2022-08-01T04:45:50.291Z,92.20
2022-08-01T04:48:23.171Z,92.30
2022-08-01T04:50:52.570Z,92.30
2022-08-01T04:53:23.102Z,92.60
2022-08-01T04:55:51.258Z,92.30
2022-08-01T04:58:19.323Z,92.30
2022-08-01T05:00:48.401Z,92.40
2022-08-01T05:03:16.746Z,92.40
2022-08-01T05:05:44.803Z,92.40
2022-08-01T05:08:12.474Z,92.40
2022-08-01T05:10:40.152Z,92.50
2022-08-01T05:13:07.786Z,92.50
2022-08-01T05:15:38.469Z,92.60
2022-08-01T05:18:08.560Z,92.70
2022-08-01T05:20:36.885Z,92.60
2022-08-01T05:23:06.107Z,92.70
2022-08-01T05:25:49.699Z,92.80
2022-08-01T05:28:21.848Z,92.80
2022-08-01T05:30:49.459Z,92.90
2022-08-01T05:33:17.055Z,93.00
2022-08-01T05:35:47.875Z,93.00
2022-08-01T05:38:17.266Z,93.10
2022-08-01T05:40:44.945Z,93.10
2022-08-01T05:43:12.525Z,93.10
2022-08-01T05:45:40.034Z,93.20
2022-08-01T05:48:07.832Z,93.20
2022-08-01T05:50:35.357Z,93.20
2022-08-01T05:53:03.227Z,93.50
2022-08-01T05:55:30.699Z,93.20
2022-08-01T05:57:58.650Z,93.10
2022-08-01T06:00:26.397Z,93.20
2022-08-01T06:02:53.910Z,93.10
2022-08-01T06:05:21.958Z,93.10
2022-08-01T06:07:49.578Z,93.10
2022-08-01T06:10:17.234Z,93.10
2022-08-01T06:12:45.025Z,93.00
2022-08-01T06:15:12.894Z,93.10
2022-08-01T06:17:40.679Z,93.00
2022-08-01T06:20:09.279Z,93.00
2022-08-01T06:22:36.779Z,93.10
2022-08-01T06:25:06.384Z,93.00
2022-08-01T06:27:36.419Z,93.00
2022-08-01T06:30:05.601Z,93.00
2022-08-01T06:32:33.137Z,92.90
2022-08-01T06:35:00.940Z,93.30
2022-08-01T06:37:33.575Z,92.90
2022-08-01T06:40:16.606Z,92.80
2022-08-01T06:42:47.068Z,92.70
2022-08-01T06:45:15.920Z,92.60
2022-08-01T06:47:45.703Z,92.60
2022-08-01T06:50:19.122Z,92.60
2022-08-01T06:52:46.773Z,92.50
2022-08-01T06:55:14.365Z,92.50
2022-08-01T06:57:53.038Z,92.50
2022-08-01T07:00:25.976Z,92.40
2022-08-01T07:02:55.910Z,92.70
2022-08-01T07:05:24.034Z,92.30
2022-08-01T07:07:51.839Z,92.20
2022-08-01T07:10:19.901Z,92.20
2022-08-01T07:12:47.503Z,92.20
2022-08-01T07:15:15.520Z,92.30
2022-08-01T07:17:44.206Z,92.00
2022-08-01T07:20:16.263Z,92.00
2022-08-01T07:22:47.451Z,91.90
2022-08-01T07:25:17.433Z,91.80
2022-08-01T07:27:45.951Z,91.80
2022-08-01T07:30:14.666Z,91.80
2022-08-01T07:32:43.510Z,91.80
2022-08-01T07:35:11.690Z,91.60
2022-08-01T07:37:48.431Z,91.60
2022-08-01T07:40:19.299Z,91.50
2022-08-01T07:42:48.044Z,91.50
2022-08-01T07:45:16.502Z,91.50
2022-08-01T07:47:44.440Z,91.40
2022-08-01T07:50:13.688Z,91.30
2022-08-01T07:52:41.282Z,91.20
2022-08-01T07:55:10.496Z,91.10
2022-08-01T07:57:38.305Z,91.10
2022-08-01T08:00:07.581Z,91.00
2022-08-01T08:02:35.440Z,90.90
2022-08-01T08:05:04.860Z,90.80
2022-08-01T08:07:36.171Z,90.70
2022-08-01T08:10:05.844Z,90.60
2022-08-01T08:12:34.167Z,90.30
2022-08-01T08:15:02.133Z,90.30
2022-08-01T08:17:29.772Z,90.10
2022-08-01T08:20:08.899Z,89.80
2022-08-01T08:22:37.695Z,89.50
2022-08-01T08:25:07.639Z,89.10
2022-08-01T08:27:37.557Z,88.80
2022-08-01T08:30:12.014Z,88.80
2022-08-01T08:32:40.413Z,88.60
2022-08-01T08:35:09.278Z,87.60
2022-08-01T08:37:47.295Z,87.10
2022-08-01T08:40:16.975Z,86.70
2022-08-01T08:42:45.178Z,86.40
2022-08-01T08:45:13.866Z,86.30
2022-08-01T08:47:44.195Z,86.30
2022-08-01T08:50:12.257Z,86.30
2022-08-01T08:52:40.721Z,86.30
2022-08-01T08:55:09.837Z,86.00
2022-08-01T08:57:41.916Z,85.80
2022-08-01T09:00:11.550Z,85.50
2022-08-01T09:02:47.960Z,85.30
2022-08-01T09:05:19.413Z,85.30
2022-08-01T09:07:47.680Z,85.00
2022-08-01T09:10:15.261Z,84.90
2022-08-01T09:13:08.201Z,84.40
2022-08-01T09:15:51.606Z,83.90
2022-08-01T09:18:36.833Z,83.80
2022-08-01T09:21:07.358Z,83.70
2022-08-01T09:23:36.054Z,83.50
2022-08-01T09:26:03.767Z,83.30
2022-08-01T09:28:33.403Z,82.90
2022-08-01T09:31:17.612Z,82.20
2022-08-01T09:33:50.694Z,82.10
2022-08-01T09:36:21.673Z,82.10
2022-08-01T09:38:51.017Z,81.70
2022-08-01T09:41:40.158Z,81.00
2022-08-01T09:44:08.046Z,80.50
2022-08-01T09:46:37.360Z,80.00
2022-08-01T09:49:10.877Z,79.80
2022-08-01T09:51:59.185Z,79.50
2022-08-01T09:54:35.010Z,78.80
2022-08-01T09:57:17.320Z,78.90
2022-08-01T09:59:58.172Z,78.60
2022-08-01T10:02:40.108Z,78.00
2022-08-01T10:05:10.578Z,78.10
2022-08-01T10:07:59.851Z,77.60
2022-08-01T10:10:28.879Z,76.90
2022-08-01T10:13:00.625Z,76.80
2022-08-01T10:15:37.210Z,76.60
2022-08-01T10:18:16.528Z,76.20
2022-08-01T10:20:49.409Z,75.30
2022-08-01T10:23:17.670Z,73.90
2022-08-01T10:25:49.654Z,73.00
2022-08-01T10:28:21.158Z,71.80
2022-08-01T10:30:50.063Z,72.90
2022-08-01T10:33:49.883Z,72.10
2022-08-01T10:36:08.647Z,72.10
2022-08-01T10:38:37.316Z,72.00
2022-08-01T10:41:08.621Z,71.40
2022-08-01T10:43:37.026Z,70.70
2022-08-01T10:46:08.393Z,70.00
2022-08-01T10:48:43.993Z,69.50
2022-08-01T10:51:17.777Z,69.10
2022-08-01T10:53:54.835Z,68.20
2022-08-01T10:56:26.461Z,66.30
2022-08-01T10:59:06.736Z,65.10
2022-08-01T11:01:45.419Z,63.00
2022-08-01T11:04:17.627Z,63.30
2022-08-01T11:07:16.513Z,61.70
2022-08-01T11:09:51.534Z,61.00
2022-08-01T11:12:24.868Z,60.80
2022-08-01T11:15:02.418Z,60.80
2022-08-01T11:17:54.525Z,59.80
2022-08-01T11:20:31.245Z,59.60
2022-08-01T11:23:02.125Z,59.10
2022-08-01T11:26:06.672Z,59.20
2022-08-01T11:28:32.652Z,59.00
2022-08-01T11:31:03.146Z,58.20
2022-08-01T11:33:46.705Z,58.30
2022-08-01T11:36:15.701Z,57.90
2022-08-01T11:38:47.766Z,57.80
2022-08-01T11:41:18.719Z,57.50
2022-08-01T11:43:56.405Z,57.70
2022-08-01T11:47:09.937Z,57.60
2022-08-01T11:49:38.614Z,57.90
2022-08-01T11:52:08.047Z,58.20
2022-08-01T11:54:37.731Z,58.20
2022-08-01T11:57:11.951Z,57.80
2022-08-01T12:00:02.447Z,57.70
2022-08-01T12:02:40.231Z,57.40
2022-08-01T12:05:12.027Z,57.70
2022-08-01T12:07:42.430Z,58.30
2022-08-01T12:10:12.688Z,57.40
2022-08-01T12:12:54.775Z,56.90
2022-08-01T12:15:25.122Z,56.70
2022-08-01T12:17:59.814Z,56.30
2022-08-01T12:20:35.728Z,56.40
2022-08-01T12:23:06.943Z,56.40
2022-08-01T12:25:35.817Z,56.40
2022-08-01T12:28:06.041Z,56.30
2022-08-01T12:30:36.774Z,56.00
2022-08-01T12:33:05.677Z,55.90
2022-08-01T12:35:34.393Z,56.60
2022-08-01T12:38:05.056Z,55.80
2022-08-01T12:40:35.791Z,55.10
2022-08-01T12:43:09.416Z,55.30
2022-08-01T12:45:56.746Z,54.50
2022-08-01T12:48:26.694Z,54.30
2022-08-01T12:50:58.414Z,54.50
2022-08-01T12:53:39.867Z,54.00
2022-08-01T12:56:11.558Z,53.20
2022-08-01T12:58:39.534Z,52.70
2022-08-01T13:01:12.594Z,53.10
2022-08-01T13:03:40.836Z,52.20
2022-08-01T13:06:17.224Z,51.70
2022-08-01T13:08:46.772Z,51.30
2022-08-01T13:11:16.537Z,51.20
2022-08-01T13:13:50.111Z,50.90
2022-08-01T13:16:31.082Z,50.60
2022-08-01T13:19:06.970Z,50.30
2022-08-01T13:21:53.868Z,50.10
2022-08-01T13:24:30.190Z,50.00
2022-08-01T13:27:04.882Z,50.10
2022-08-01T13:29:45.990Z,49.50
2022-08-01T13:32:29.173Z,49.30
2022-08-01T13:35:09.957Z,48.80
2022-08-01T13:37:38.946Z,48.80
2022-08-01T13:40:09.642Z,49.30
2022-08-01T13:42:37.758Z,49.60
2022-08-01T13:45:14.006Z,50.30
2022-08-01T13:48:03.285Z,50.10
2022-08-01T13:50:33.744Z,49.30
2022-08-01T13:53:01.519Z,49.20
2022-08-01T13:55:34.485Z,48.30
2022-08-01T13:58:03.798Z,46.90
2022-08-01T14:00:31.969Z,46.30
2022-08-01T14:02:59.436Z,46.50
2022-08-01T14:05:26.979Z,46.60
2022-08-01T14:07:56.383Z,46.50
2022-08-01T14:10:27.289Z,46.60
2022-08-01T14:12:57.312Z,46.60
2022-08-01T14:15:38.130Z,45.70
2022-08-01T14:18:09.364Z,45.20
2022-08-01T14:20:38.719Z,45.20
2022-08-01T14:23:08.806Z,44.60
2022-08-01T14:26:03.205Z,44.30
2022-08-01T14:28:31.157Z,44.10
2022-08-01T14:30:59.593Z,43.30
2022-08-01T14:33:27.693Z,42.20
2022-08-01T14:36:05.533Z,42.20
2022-08-01T14:38:44.385Z,42.20
2022-08-01T14:41:15.681Z,42.30
2022-08-01T14:43:43.528Z,42.00
2022-08-01T14:46:11.267Z,42.00
2022-08-01T14:48:38.904Z,42.20
2022-08-01T14:51:08.092Z,42.10
2022-08-01T14:53:37.492Z,42.10
2022-08-01T14:56:05.680Z,42.10
2022-08-01T14:58:34.364Z,41.80
2022-08-01T15:01:02.120Z,41.30
2022-08-01T15:03:29.847Z,41.40
2022-08-01T15:05:57.445Z,41.80
2022-08-01T15:08:25.060Z,41.90
2022-08-01T15:10:53.041Z,42.10
2022-08-01T15:13:20.565Z,42.20
2022-08-01T15:15:48.318Z,42.20
2022-08-01T15:18:15.776Z,42.30
2022-08-01T15:20:43.375Z,42.00
2022-08-01T15:23:10.903Z,42.10
2022-08-01T15:25:40.790Z,42.40
2022-08-01T15:28:11.001Z,42.80
2022-08-01T15:30:38.979Z,43.20
2022-08-01T15:33:06.840Z,43.40
2022-08-01T15:35:34.450Z,43.70
2022-08-01T15:38:02.088Z,44.00
2022-08-01T15:40:29.836Z,43.90
2022-08-01T15:42:57.459Z,44.20
2022-08-01T15:45:46.383Z,44.60
2022-08-01T15:48:12.730Z,45.60
2022-08-01T15:50:40.245Z,45.70
2022-08-01T15:53:08.029Z,46.20
2022-08-01T15:55:39.798Z,46.80
2022-08-01T15:58:08.056Z,47.30
2022-08-01T16:00:39.279Z,47.60
2022-08-01T16:03:08.368Z,47.90
2022-08-01T16:05:42.779Z,48.20
2022-08-01T16:08:14.726Z,47.80
2022-08-01T16:10:43.098Z,47.60
2022-08-01T16:13:11.251Z,47.80
2022-08-01T16:15:39.433Z,48.10
2022-08-01T16:18:08.820Z,48.20
2022-08-01T16:20:41.518Z,48.40
2022-08-01T16:23:13.484Z,48.20
2022-08-01T16:25:41.172Z,48.30
2022-08-01T16:28:09.927Z,48.70
2022-08-01T16:30:48.557Z,48.80
2022-08-01T16:33:47.543Z,48.20
2022-08-01T16:36:16.654Z,48.30
2022-08-01T16:38:45.169Z,48.80
2022-08-01T16:41:19.092Z,48.80
2022-08-01T16:43:53.528Z,48.60
2022-08-01T16:46:26.735Z,48.40
2022-08-01T16:48:55.006Z,48.40
2022-08-01T16:51:22.802Z,48.70
2022-08-01T16:53:50.315Z,48.90
2022-08-01T16:56:17.948Z,49.20
2022-08-01T16:58:46.010Z,49.60
2022-08-01T17:01:56.202Z,49.90
2022-08-01T17:04:02.327Z,50.10
2022-08-01T17:06:30.549Z,50.30
2022-08-01T17:08:58.546Z,50.60
2022-08-01T17:11:26.647Z,50.90
2022-08-01T17:13:54.197Z,50.70
2022-08-01T17:16:22.048Z,51.10
2022-08-01T17:18:49.707Z,51.30
2022-08-01T17:21:17.432Z,51.60
2022-08-01T17:23:45.391Z,51.80
2022-08-01T17:26:13.107Z,52.00
2022-08-01T17:28:40.845Z,52.40
2022-08-01T17:31:10.481Z,52.60
2022-08-01T17:33:45.046Z,52.80
2022-08-01T17:36:17.876Z,53.00
2022-08-01T17:38:45.784Z,53.20
2022-08-01T17:41:13.556Z,53.50
2022-08-01T17:43:41.273Z,53.90
2022-08-01T17:46:08.998Z,54.00
2022-08-01T17:48:36.855Z,54.40
2022-08-01T17:51:04.495Z,54.40
2022-08-01T17:53:32.256Z,54.60
2022-08-01T17:56:02.259Z,54.60
2022-08-01T17:58:33.168Z,54.70
2022-08-01T18:01:18.932Z,54.90
2022-08-01T18:03:47.076Z,55.30
2022-08-01T18:06:17.559Z,55.50
2022-08-01T18:08:47.613Z,55.70
2022-08-01T18:11:16.561Z,56.00
2022-08-01T18:13:44.894Z,56.30
2022-08-01T18:16:13.244Z,56.80
2022-08-01T18:18:42.312Z,57.10
2022-08-01T18:21:11.692Z,57.40
2022-08-01T18:23:39.202Z,57.80
2022-08-01T18:26:08.562Z,58.50
2022-08-01T18:28:46.671Z,58.30
2022-08-01T18:31:17.339Z,58.50
2022-08-01T18:33:46.055Z,58.80
2022-08-01T18:36:31.418Z,59.20
2022-08-01T18:39:03.665Z,59.50
2022-08-01T18:41:34.022Z,59.80
2022-08-01T18:44:04.308Z,60.40
2022-08-01T18:46:39.987Z,60.90
2022-08-01T18:49:10.069Z,61.30
2022-08-01T18:51:43.885Z,62.10
2022-08-01T18:54:16.747Z,62.50
2022-08-01T18:56:44.873Z,63.50
2022-08-01T18:59:12.720Z,63.90
2022-08-01T19:01:40.820Z,64.70
2022-08-01T19:04:08.951Z,65.20
2022-08-01T19:06:36.937Z,65.70
2022-08-01T19:09:05.165Z,66.30
2022-08-01T19:11:34.575Z,66.80
2022-08-01T19:14:03.019Z,67.30
2022-08-01T19:16:30.912Z,67.60
2022-08-01T19:18:58.433Z,68.20
2022-08-01T19:21:26.169Z,68.60
2022-08-01T19:24:12.282Z,69.20
2022-08-01T19:26:45.439Z,69.40
2022-08-01T19:29:20.842Z,69.70
2022-08-01T19:31:50.121Z,70.40
2022-08-01T19:34:19.695Z,70.70
2022-08-01T19:36:56.088Z,71.20
2022-08-01T19:39:27.037Z,71.50
2022-08-01T19:41:56.986Z,71.90
2022-08-01T19:44:26.684Z,72.20
2022-08-01T19:46:54.460Z,72.50
2022-08-01T19:49:23.611Z,72.80
2022-08-01T19:51:55.281Z,73.10
2022-08-01T19:54:29.409Z,73.50
2022-08-01T19:57:00.924Z,73.90
2022-08-01T19:59:32.719Z,74.10
2022-08-01T20:02:01.485Z,74.40
2022-08-01T20:04:29.685Z,74.50
2022-08-01T20:06:57.221Z,74.90
2022-08-01T20:09:26.645Z,75.00
2022-08-01T20:11:54.725Z,75.20
2022-08-01T20:14:24.670Z,75.50
2022-08-01T20:16:54.411Z,75.60
2022-08-01T20:19:24.445Z,75.80
2022-08-01T20:22:05.917Z,76.00
2022-08-01T20:24:49.872Z,76.50
2022-08-01T20:27:19.245Z,76.70
2022-08-01T20:29:49.875Z,76.60
2022-08-01T20:32:18.444Z,76.90
2022-08-01T20:34:46.110Z,76.80
2022-08-01T20:37:14.786Z,77.00
2022-08-01T20:39:44.283Z,77.20
2022-08-01T20:42:13.945Z,77.40
2022-08-01T20:44:45.294Z,77.40
2022-08-01T20:47:14.314Z,77.60
2022-08-01T20:49:43.459Z,77.50
2022-08-01T20:52:12.636Z,77.40
2022-08-01T20:54:41.837Z,77.30
2022-08-01T20:57:20.263Z,77.40
2022-08-01T20:59:55.800Z,77.60
2022-08-01T21:02:35.068Z,77.40
2022-08-01T21:05:05.475Z,77.10
2022-08-01T21:07:38.878Z,77.00
2022-08-01T21:10:15.978Z,77.00
2022-08-01T21:12:44.980Z,77.10
2022-08-01T21:15:23.238Z,76.90
2022-08-01T21:18:06.991Z,76.80
2022-08-01T21:20:38.182Z,76.90
2022-08-01T21:23:23.892Z,76.80
2022-08-01T21:25:53.184Z,76.90
2022-08-01T21:28:24.700Z,77.00
2022-08-01T21:30:58.887Z,77.10
2022-08-01T21:33:28.815Z,77.30
2022-08-01T21:36:04.161Z,78.20
2022-08-01T21:38:37.526Z,77.50
2022-08-01T21:41:08.291Z,77.70
2022-08-01T21:43:37.233Z,77.80
2022-08-01T21:46:05.890Z,77.70
2022-08-01T21:48:33.553Z,77.90
2022-08-01T21:51:28.047Z,77.90
2022-08-01T21:53:55.787Z,78.00
2022-08-01T21:56:45.328Z,77.90
2022-08-01T22:00:00.473Z,78.20
2022-08-01T22:03:13.250Z,77.90
2022-08-01T22:05:51.062Z,77.90
2022-08-01T22:08:32.153Z,77.80
2022-08-01T22:11:03.301Z,77.80
2022-08-01T22:13:32.787Z,77.40
2022-08-01T22:16:02.249Z,77.70
2022-08-01T22:18:30.350Z,77.60
2022-08-01T22:20:58.028Z,77.60
2022-08-01T22:23:26.245Z,77.50
2022-08-01T22:25:55.618Z,77.60
2022-08-01T22:28:23.751Z,77.30
2022-08-01T22:30:52.322Z,77.30
2022-08-01T22:33:20.818Z,77.20
2022-08-01T22:35:50.727Z,77.20
2022-08-01T22:38:20.709Z,77.30
2022-08-01T22:40:52.345Z,77.00
2022-08-01T22:43:39.449Z,76.90
2022-08-01T22:46:06.972Z,76.90
2022-08-01T22:49:09.379Z,76.70
2022-08-01T22:51:37.321Z,76.50
2022-08-01T22:54:12.065Z,76.50
2022-08-01T22:56:44.218Z,76.20
2022-08-01T22:59:15.765Z,76.10
2022-08-01T23:01:48.361Z,75.80
2022-08-01T23:04:42.867Z,75.70
2022-08-01T23:07:12.016Z,75.60
2022-08-01T23:09:53.629Z,75.50
2022-08-01T23:12:27.571Z,76.00
2022-08-01T23:14:57.219Z,74.90
2022-08-01T23:17:30.512Z,74.60
2022-08-01T23:20:04.263Z,74.30
2022-08-01T23:22:34.462Z,74.10
2022-08-01T23:25:07.782Z,74.00
2022-08-01T23:27:51.502Z,73.80
2022-08-01T23:30:29.401Z,73.60
2022-08-01T23:32:57.411Z,73.60
2022-08-01T23:35:27.997Z,73.60
2022-08-01T23:38:02.505Z,73.60
2022-08-01T23:40:32.753Z,73.60
2022-08-01T23:43:01.598Z,73.70
2022-08-01T23:46:02.722Z,73.70
2022-08-01T23:48:17.771Z,73.90
2022-08-01T23:50:45.520Z,74.10
2022-08-01T23:53:13.310Z,74.10
2022-08-01T23:55:41.833Z,74.20
2022-08-01T23:58:11.710Z,74.20
